createdAt,value
2018-09-13T00:02:24.500Z,21.56
2018-09-13T00:04:56.096Z,22.16
2018-09-13T00:07:26.993Z,22.59
2018-09-13T00:10:00.036Z,22.61
2018-09-13T00:12:32.698Z,22.60
2018-09-13T00:15:03.692Z,22.92
2018-09-13T00:17:35.321Z,23.13
2018-09-13T00:20:08.414Z,23.18
2018-09-13T00:22:50.631Z,22.97
2018-09-13T00:25:24.893Z,22.25
2018-09-13T00:27:56.096Z,22.17
2018-09-13T00:30:26.720Z,22.09
2018-09-13T00:32:57.532Z,22.19
2018-09-13T00:35:27.827Z,22.15
2018-09-13T00:37:59.591Z,22.15
2018-09-13T00:40:32.931Z,22.40
2018-09-13T00:43:04.328Z,22.63
2018-09-13T00:45:35.826Z,22.16
2018-09-13T00:48:06.420Z,22.27
2018-09-13T00:50:37.640Z,22.53
2018-09-13T00:53:09.033Z,22.21
2018-09-13T00:55:40.735Z,22.13
2018-09-13T00:58:14.541Z,22.14
2018-09-13T01:00:45.348Z,22.07
2018-09-13T01:03:15.923Z,22.16
2018-09-13T01:05:47.066Z,22.12
2018-09-13T01:08:17.746Z,21.80
2018-09-13T01:10:48.286Z,21.76
2018-09-13T01:13:19.412Z,21.66
2018-09-13T01:15:51.303Z,22.00
2018-09-13T01:18:27.266Z,22.29
2018-09-13T01:20:58.531Z,22.06
2018-09-13T01:23:29.257Z,21.79
2018-09-13T01:26:00.913Z,22.25
2018-09-13T01:31:18.249Z,22.26
2018-09-13T01:33:49.017Z,22.12
2018-09-13T01:36:20.236Z,21.93
2018-09-13T01:38:54.636Z,21.85
2018-09-13T01:41:24.986Z,22.02
2018-09-13T01:43:55.552Z,22.01
2018-09-13T01:46:26.570Z,22.00
2018-09-13T01:48:57.102Z,20.86
2018-09-13T01:51:28.855Z,20.71
2018-09-13T01:53:59.389Z,21.39
2018-09-13T01:56:30.017Z,21.82
2018-09-13T01:59:00.549Z,21.87
2018-09-13T02:01:30.862Z,21.31
2018-09-13T02:04:01.466Z,20.83
2018-09-13T02:06:31.722Z,21.19
2018-09-13T02:09:02.396Z,20.84
2018-09-13T02:11:34.347Z,20.56
2018-09-13T02:14:04.616Z,20.85
2018-09-13T02:16:34.980Z,20.66
2018-09-13T02:19:05.370Z,20.62
2018-09-13T02:21:35.575Z,20.18
2018-09-13T02:24:05.825Z,19.99
2018-09-13T02:26:36.096Z,19.80
2018-09-13T02:29:06.707Z,19.76
2018-09-13T02:31:37.893Z,19.98
2018-09-13T02:34:09.312Z,19.74
2018-09-13T02:36:39.851Z,19.69
2018-09-13T02:39:10.971Z,19.49
2018-09-13T02:41:41.590Z,19.67
2018-09-13T02:44:12.456Z,20.00
2018-09-13T02:46:43.172Z,20.10
2018-09-13T02:49:14.065Z,19.92
2018-09-13T02:51:44.772Z,19.70
2018-09-13T02:54:18.880Z,19.54
2018-09-13T02:56:49.424Z,19.28
2018-09-13T02:59:20.091Z,19.08
2018-09-13T03:01:50.687Z,19.06
2018-09-13T03:04:21.888Z,19.11
2018-09-13T03:06:53.342Z,19.50
2018-09-13T03:09:24.296Z,20.10
2018-09-13T03:11:55.412Z,19.84
2018-09-13T03:14:25.908Z,20.58
2018-09-13T03:16:56.449Z,20.69
2018-09-13T03:19:26.955Z,20.78
2018-09-13T03:21:58.388Z,20.89
2018-09-13T03:24:28.956Z,21.03
2018-09-13T03:26:59.448Z,21.17
2018-09-13T03:29:30.048Z,20.84
2018-09-13T03:32:01.529Z,20.81
2018-09-13T03:34:32.855Z,20.84
2018-09-13T03:37:03.358Z,21.04
2018-09-13T03:39:33.996Z,21.27
2018-09-13T03:42:04.523Z,21.50
2018-09-13T03:44:35.286Z,21.02
2018-09-13T03:47:06.031Z,21.21
2018-09-13T03:49:36.558Z,21.55
2018-09-13T03:52:07.140Z,21.70
2018-09-13T03:54:37.929Z,21.74
2018-09-13T03:57:09.901Z,21.73
2018-09-13T03:59:41.318Z,21.23
2018-09-13T04:02:12.410Z,20.38
2018-09-13T04:04:54.734Z,19.58
2018-09-13T04:07:25.174Z,19.82
2018-09-13T04:09:55.703Z,20.21
2018-09-13T04:12:27.216Z,20.89
2018-09-13T04:15:02.186Z,20.66
2018-09-13T04:17:32.965Z,20.43
2018-09-13T04:20:03.685Z,20.09
2018-09-13T04:22:34.358Z,19.80
2018-09-13T04:25:05.278Z,19.73
2018-09-13T04:27:35.651Z,20.14
2018-09-13T04:30:06.452Z,20.01
2018-09-13T04:32:36.944Z,20.11
2018-09-13T04:35:07.550Z,19.81
2018-09-13T04:37:38.048Z,19.56
2018-09-13T04:40:08.590Z,19.15
2018-09-13T04:42:39.287Z,19.05
2018-09-13T04:45:09.792Z,19.16
2018-09-13T04:47:40.005Z,19.40
2018-09-13T04:50:11.563Z,19.55
2018-09-13T04:52:42.260Z,19.49
2018-09-13T04:55:12.488Z,19.24
2018-09-13T04:57:42.699Z,19.30
2018-09-13T05:00:13.658Z,19.94
2018-09-13T05:02:44.351Z,20.36
2018-09-13T05:05:14.875Z,20.78
2018-09-13T05:07:45.484Z,21.01
2018-09-13T05:10:16.041Z,20.15
2018-09-13T05:12:46.344Z,20.47
2018-09-13T05:15:17.027Z,20.47
2018-09-13T05:17:47.486Z,21.03
2018-09-13T05:20:18.356Z,21.40
2018-09-13T05:22:48.864Z,21.70
2018-09-13T05:25:19.905Z,21.67
2018-09-13T05:27:50.259Z,21.29
2018-09-13T05:30:20.852Z,21.39
2018-09-13T05:32:51.096Z,21.47
2018-09-13T05:35:21.469Z,20.96
2018-09-13T05:38:00.372Z,20.65
2018-09-13T05:40:47.540Z,20.68
2018-09-13T05:43:18.724Z,20.76
2018-09-13T05:45:49.202Z,20.89
2018-09-13T05:48:19.796Z,21.16
2018-09-13T05:50:50.488Z,20.84
2018-09-13T05:53:20.784Z,20.22
2018-09-13T05:55:52.156Z,20.22
2018-09-13T05:58:22.663Z,20.58
2018-09-13T06:00:53.556Z,20.25
2018-09-13T06:03:25.511Z,20.50
2018-09-13T06:05:55.816Z,20.84
2018-09-13T06:08:26.313Z,21.11
2018-09-13T06:10:56.612Z,21.51
2018-09-13T06:13:27.747Z,21.06
2018-09-13T06:15:58.633Z,20.62
2018-09-13T06:18:29.365Z,20.56
2018-09-13T06:21:00.608Z,20.51
2018-09-13T06:23:31.070Z,20.25
2018-09-13T06:26:01.489Z,20.16
2018-09-13T06:28:31.765Z,20.22
2018-09-13T06:31:02.756Z,20.23
2018-09-13T06:33:33.176Z,20.37
2018-09-13T06:36:03.704Z,20.62
2018-09-13T06:38:34.228Z,20.62
2018-09-13T06:41:05.356Z,20.71
2018-09-13T06:43:35.912Z,21.15
2018-09-13T06:46:06.457Z,21.84
2018-09-13T06:48:37.036Z,22.48
2018-09-13T06:51:07.778Z,22.91
2018-09-13T06:53:38.385Z,22.76
2018-09-13T06:56:08.914Z,22.58
2018-09-13T06:58:39.649Z,22.59
2018-09-13T07:01:10.021Z,22.37
2018-09-13T07:03:40.607Z,22.96
2018-09-13T07:06:11.177Z,23.36
2018-09-13T07:08:42.154Z,23.67
2018-09-13T07:11:13.087Z,23.81
2018-09-13T07:13:44.158Z,23.92
2018-09-13T07:16:14.719Z,24.23
2018-09-13T07:18:45.282Z,24.48
2018-09-13T07:21:16.032Z,24.19
2018-09-13T07:23:46.891Z,23.51
2018-09-13T07:26:17.486Z,23.12
2018-09-13T07:28:48.741Z,22.98
2018-09-13T07:31:19.060Z,23.57
2018-09-13T07:33:50.432Z,23.97
2018-09-13T07:36:21.223Z,24.10
2018-09-13T07:38:51.764Z,24.10
2018-09-13T07:41:22.433Z,24.61
2018-09-13T07:43:52.932Z,25.04
2018-09-13T07:46:23.657Z,25.02
2018-09-13T07:48:54.218Z,25.26
2018-09-13T07:51:24.841Z,25.11
2018-09-13T07:53:57.178Z,25.66
2018-09-13T07:56:27.838Z,25.97
2018-09-13T07:58:58.769Z,25.69
2018-09-13T08:01:29.028Z,25.41
2018-09-13T08:03:59.275Z,24.15
2018-09-13T08:06:30.516Z,24.90
2018-09-13T08:09:01.302Z,25.60
2018-09-13T08:11:31.817Z,26.07
2018-09-13T08:14:02.358Z,26.51
2018-09-13T08:16:32.600Z,26.29
2018-09-13T08:19:03.634Z,26.29
2018-09-13T08:21:34.234Z,26.24
2018-09-13T08:24:05.381Z,26.41
2018-09-13T08:26:35.895Z,27.04
2018-09-13T08:29:06.483Z,27.35
2018-09-13T08:31:37.319Z,26.89
2018-09-13T08:34:07.649Z,27.30
2018-09-13T08:36:38.619Z,27.20
2018-09-13T08:39:10.856Z,27.08
2018-09-13T08:41:41.742Z,27.02
2018-09-13T08:44:12.096Z,26.72
2018-09-13T08:46:42.456Z,27.46
2018-09-13T08:49:12.884Z,26.99
2018-09-13T08:51:43.456Z,27.51
2018-09-13T08:54:15.049Z,27.85
2018-09-13T08:56:45.360Z,27.98
2018-09-13T08:59:15.846Z,28.16
2018-09-13T09:01:46.432Z,28.11
2018-09-13T09:04:17.169Z,27.80
2018-09-13T09:06:47.796Z,27.39
2018-09-13T09:09:18.399Z,27.49
2018-09-13T09:11:48.742Z,27.87
2018-09-13T09:14:19.522Z,28.09
2018-09-13T09:16:50.025Z,28.75
2018-09-13T09:19:21.042Z,28.49
2018-09-13T09:21:51.296Z,29.07
2018-09-13T09:24:22.207Z,28.87
2018-09-13T09:26:53.360Z,29.73
2018-09-13T09:29:23.978Z,31.53
2018-09-13T09:31:54.652Z,37.59
2018-09-13T09:34:25.141Z,42.13
2018-09-13T09:36:55.372Z,45.23
2018-09-13T09:39:25.927Z,48.30
2018-09-13T09:41:56.190Z,46.91
2018-09-13T09:44:26.819Z,46.82
2018-09-13T09:46:57.563Z,50.39
2018-09-13T09:49:28.131Z,51.55
2018-09-13T09:51:58.937Z,53.46
2018-09-13T09:54:29.384Z,51.14
2018-09-13T09:57:00.231Z,51.04
2018-09-13T09:59:30.440Z,52.04
2018-09-13T10:02:05.942Z,49.66
2018-09-13T10:04:36.179Z,51.68
2018-09-13T10:07:08.099Z,53.86
2018-09-13T10:09:38.758Z,46.52
2018-09-13T10:12:09.836Z,46.78
2018-09-13T10:14:40.231Z,49.18
2018-09-13T10:17:16.621Z,48.80
2018-09-13T10:19:52.267Z,49.40
2018-09-13T10:22:28.148Z,52.15
2018-09-13T10:25:03.731Z,44.42
2018-09-13T10:27:40.510Z,44.50
2018-09-13T10:30:15.919Z,44.75
2018-09-13T10:32:51.828Z,46.69
2018-09-13T10:35:27.437Z,45.85
2018-09-13T10:38:03.279Z,46.42
2018-09-13T10:40:38.754Z,49.41
2018-09-13T10:43:15.046Z,49.05
2018-09-13T10:45:51.001Z,46.88
2018-09-13T10:48:25.600Z,46.95
2018-09-13T10:51:01.454Z,39.08
2018-09-13T10:53:39.722Z,38.22
2018-09-13T10:56:10.247Z,36.86
2018-09-13T10:58:40.554Z,35.88
2018-09-13T11:01:13.150Z,32.17
2018-09-13T11:03:43.818Z,33.52
2018-09-13T11:06:14.348Z,32.07
2018-09-13T11:08:45.120Z,33.65
2018-09-13T11:11:15.689Z,33.51
2018-09-13T11:13:51.711Z,34.06
2018-09-13T11:16:22.452Z,34.40
2018-09-13T11:18:53.356Z,33.07
2018-09-13T11:21:23.921Z,33.37
2018-09-13T11:23:54.724Z,33.22
2018-09-13T11:26:26.104Z,33.98
2018-09-13T11:28:56.589Z,34.17
2018-09-13T11:31:27.225Z,32.12
2018-09-13T11:33:58.160Z,32.56
2018-09-13T11:36:28.735Z,33.91
2018-09-13T11:38:59.280Z,33.98
2018-09-13T11:41:29.799Z,34.05
2018-09-13T11:44:00.531Z,35.13
2018-09-13T11:46:30.773Z,35.40
2018-09-13T11:49:02.180Z,35.84
2018-09-13T11:51:33.273Z,36.36
2018-09-13T11:54:04.259Z,36.23
2018-09-13T11:56:34.928Z,35.46
2018-09-13T11:59:05.928Z,33.37
2018-09-13T12:01:37.544Z,33.85
2018-09-13T12:04:08.766Z,34.36
2018-09-13T12:06:39.199Z,34.53
2018-09-13T12:09:13.215Z,35.50
2018-09-13T12:11:43.679Z,34.73
2018-09-13T12:14:14.941Z,35.41
2018-09-13T12:16:45.153Z,35.53
2018-09-13T12:19:15.932Z,35.79
2018-09-13T12:21:46.421Z,36.16
2018-09-13T12:24:16.963Z,34.88
2018-09-13T12:26:47.469Z,35.43
2018-09-13T12:29:18.033Z,35.01
2018-09-13T12:31:48.594Z,33.49
2018-09-13T12:34:19.303Z,33.25
2018-09-13T12:36:50.548Z,32.76
2018-09-13T12:39:21.679Z,33.94
2018-09-13T12:41:52.337Z,34.84
2018-09-13T12:44:23.179Z,35.19
2018-09-13T12:46:53.894Z,33.36
2018-09-13T12:49:24.826Z,33.13
2018-09-13T12:51:55.472Z,32.81
2018-09-13T12:54:25.917Z,32.89
2018-09-13T12:56:56.567Z,33.48
2018-09-13T12:59:28.152Z,33.90
2018-09-13T13:01:58.653Z,33.04
2018-09-13T13:04:29.248Z,32.67
2018-09-13T13:06:59.769Z,32.43
2018-09-13T13:09:30.329Z,33.34
2018-09-13T13:12:01.032Z,32.62
2018-09-13T13:14:31.308Z,32.50
2018-09-13T13:17:01.920Z,32.95
2018-09-13T13:19:35.319Z,33.09
2018-09-13T13:22:06.264Z,33.06
2018-09-13T13:24:36.828Z,33.63
2018-09-13T13:27:07.560Z,32.97
2018-09-13T13:29:38.355Z,33.43
2018-09-13T13:32:08.928Z,31.95
2018-09-13T13:34:39.467Z,32.33
2018-09-13T13:37:09.909Z,32.51
2018-09-13T13:39:40.535Z,32.19
2018-09-13T13:42:11.356Z,32.01
2018-09-13T13:44:41.930Z,32.55
2018-09-13T13:47:12.701Z,33.45
2018-09-13T13:49:42.898Z,33.84
2018-09-13T13:52:13.429Z,34.42
2018-09-13T13:54:44.063Z,35.02
2018-09-13T13:57:14.300Z,34.22
2018-09-13T13:59:44.828Z,34.10
2018-09-13T14:02:15.737Z,33.23
2018-09-13T14:04:46.302Z,32.47
2018-09-13T14:07:16.998Z,32.05
2018-09-13T14:09:47.592Z,33.05
2018-09-13T14:12:18.328Z,33.97
2018-09-13T14:14:50.980Z,33.14
2018-09-13T14:17:22.652Z,33.63
2018-09-13T14:19:54.128Z,34.01
2018-09-13T14:22:24.848Z,34.10
2018-09-13T14:24:55.365Z,34.08
2018-09-13T14:27:26.204Z,32.66
2018-09-13T14:29:57.046Z,32.85
2018-09-13T14:32:27.716Z,32.29
2018-09-13T14:34:58.220Z,32.49
2018-09-13T14:37:28.715Z,32.75
2018-09-13T14:39:59.439Z,31.53
2018-09-13T14:42:30.936Z,32.51
2018-09-13T14:45:01.399Z,33.01
2018-09-13T14:47:32.145Z,33.25
2018-09-13T14:50:02.866Z,31.32
2018-09-13T14:52:35.201Z,31.21
2018-09-13T14:55:05.547Z,30.77
2018-09-13T14:57:35.847Z,30.62
2018-09-13T15:00:07.704Z,30.95
2018-09-13T15:02:38.487Z,31.60
2018-09-13T15:05:10.224Z,32.07
2018-09-13T15:07:40.932Z,32.02
2018-09-13T15:10:11.610Z,32.17
2018-09-13T15:12:42.932Z,32.50
2018-09-13T15:15:13.894Z,32.88
2018-09-13T15:17:44.692Z,33.01
2018-09-13T15:20:15.191Z,32.94
2018-09-13T15:22:45.731Z,33.52
2018-09-13T15:25:16.321Z,33.07
2018-09-13T15:27:47.252Z,32.41
2018-09-13T15:30:17.798Z,32.70
2018-09-13T15:32:48.277Z,32.98
2018-09-13T15:35:18.873Z,32.93
2018-09-13T15:37:49.374Z,32.78
2018-09-13T15:40:19.842Z,32.17
2018-09-13T15:42:50.317Z,31.83
2018-09-13T15:45:20.770Z,31.80
2018-09-13T15:47:51.372Z,31.57
2018-09-13T15:50:21.621Z,31.26
2018-09-13T15:52:52.768Z,31.18
2018-09-13T15:55:24.056Z,31.02
2018-09-13T15:57:54.260Z,31.00
2018-09-13T16:00:25.119Z,31.22
2018-09-13T16:02:57.266Z,31.32
2018-09-13T16:05:27.527Z,31.30
2018-09-13T16:07:58.077Z,31.11
2018-09-13T16:10:28.688Z,30.92
2018-09-13T16:12:59.312Z,30.63
2018-09-13T16:15:29.673Z,30.66
2018-09-13T16:18:00.527Z,30.55
2018-09-13T16:20:31.215Z,30.46
2018-09-13T16:23:01.560Z,30.39
2018-09-13T16:25:32.793Z,30.32
2018-09-13T16:28:03.181Z,30.35
2018-09-13T16:30:33.768Z,30.11
2018-09-13T16:33:04.279Z,30.19
2018-09-13T16:35:35.158Z,30.46
2018-09-13T16:38:11.609Z,30.26
2018-09-13T16:40:47.920Z,30.51
2018-09-13T16:43:22.596Z,30.42
2018-09-13T16:45:53.411Z,29.75
2018-09-13T16:48:29.084Z,29.01
2018-09-13T16:50:59.807Z,28.74
2018-09-13T16:53:30.032Z,28.69
2018-09-13T16:56:00.884Z,29.00
2018-09-13T16:58:31.857Z,29.49
2018-09-13T17:01:02.081Z,29.66
2018-09-13T17:03:32.445Z,29.74
2018-09-13T17:06:03.080Z,29.80
2018-09-13T17:08:33.610Z,29.61
2018-09-13T17:11:04.060Z,29.61
2018-09-13T17:13:34.610Z,29.45
2018-09-13T17:16:05.057Z,29.59
2018-09-13T17:18:35.577Z,29.49
2018-09-13T17:21:06.491Z,29.29
2018-09-13T17:23:37.162Z,29.25
2018-09-13T17:26:07.835Z,29.26
2018-09-13T17:28:38.048Z,29.13
2018-09-13T17:31:09.566Z,29.04
2018-09-13T17:33:39.854Z,28.64
2018-09-13T17:36:10.242Z,28.59
2018-09-13T17:38:40.963Z,28.79
2018-09-13T17:41:11.469Z,28.64
2018-09-13T17:43:41.961Z,28.64
2018-09-13T17:46:12.447Z,28.82
2018-09-13T17:48:42.992Z,28.87
2018-09-13T17:51:13.684Z,28.32
2018-09-13T17:53:44.232Z,27.99
2018-09-13T17:56:15.054Z,27.66
2018-09-13T17:58:45.716Z,27.26
2018-09-13T18:01:16.466Z,27.05
2018-09-13T18:03:47.054Z,26.99
2018-09-13T18:06:17.808Z,27.07
2018-09-13T18:08:48.344Z,27.15
2018-09-13T18:11:18.966Z,27.19
2018-09-13T18:13:50.100Z,27.01
2018-09-13T18:16:20.644Z,26.98
2018-09-13T18:18:51.241Z,27.21
2018-09-13T18:21:21.663Z,26.96
2018-09-13T18:23:52.201Z,26.52
2018-09-13T18:26:22.428Z,26.46
2018-09-13T18:28:52.680Z,26.98
2018-09-13T18:31:23.510Z,27.57
2018-09-13T18:33:53.917Z,27.84
2018-09-13T18:36:24.544Z,28.32
2018-09-13T18:38:55.716Z,28.40
2018-09-13T18:41:26.282Z,28.60
2018-09-13T18:43:56.860Z,28.60
2018-09-13T18:46:27.439Z,28.20
2018-09-13T18:48:58.425Z,28.44
2018-09-13T18:51:28.860Z,27.98
2018-09-13T18:53:59.255Z,26.51
2018-09-13T18:56:29.583Z,25.86
2018-09-13T18:58:59.885Z,25.51
2018-09-13T19:01:30.446Z,25.19
2018-09-13T19:04:00.667Z,25.17
2018-09-13T19:06:31.317Z,25.42
2018-09-13T19:09:01.684Z,25.96
2018-09-13T19:11:32.223Z,26.14
2018-09-13T19:14:03.043Z,26.93
2018-09-13T19:16:34.366Z,27.25
2018-09-13T19:19:04.942Z,27.23
2018-09-13T19:21:35.532Z,26.71
2018-09-13T19:24:06.301Z,26.70
2018-09-13T19:26:37.055Z,26.70
2018-09-13T19:29:07.897Z,26.34
2018-09-13T19:31:38.925Z,25.87
2018-09-13T19:34:09.425Z,25.42
2018-09-13T19:36:39.977Z,25.27
2018-09-13T19:39:12.439Z,25.16
2018-09-13T19:41:43.748Z,24.93
2018-09-13T19:44:14.990Z,24.89
2018-09-13T19:46:48.032Z,24.79
2018-09-13T19:49:18.938Z,24.57
2018-09-13T19:51:49.843Z,24.48
2018-09-13T19:54:20.365Z,24.47
2018-09-13T19:56:51.260Z,24.37
2018-09-13T19:59:22.767Z,24.48
2018-09-13T20:01:53.407Z,24.71
2018-09-13T20:04:25.049Z,25.12
2018-09-13T20:06:55.728Z,25.03
2018-09-13T20:09:26.870Z,25.11
2018-09-13T20:11:57.837Z,25.06
2018-09-13T20:14:28.809Z,24.96
2018-09-13T20:16:59.385Z,24.52
2018-09-13T20:19:30.451Z,24.47
2018-09-13T20:22:01.284Z,24.28
2018-09-13T20:24:32.112Z,24.18
2018-09-13T20:27:07.488Z,24.11
2018-09-13T20:29:39.219Z,24.26
2018-09-13T20:32:09.759Z,24.22
2018-09-13T20:34:40.651Z,24.05
2018-09-13T20:37:11.355Z,23.96
2018-09-13T20:39:42.191Z,23.88
2018-09-13T20:42:12.531Z,23.90
2018-09-13T20:44:43.067Z,24.03
2018-09-13T20:47:13.368Z,23.80
2018-09-13T20:49:43.880Z,23.73
2018-09-13T20:52:15.328Z,23.70
2018-09-13T20:54:45.875Z,23.45
2018-09-13T20:57:16.873Z,23.42
2018-09-13T20:59:47.637Z,23.39
2018-09-13T21:02:18.311Z,23.36
2018-09-13T21:04:48.614Z,23.44
2018-09-13T21:07:19.513Z,23.84
2018-09-13T21:09:50.019Z,24.39
2018-09-13T21:12:20.632Z,24.50
2018-09-13T21:14:51.902Z,24.50
2018-09-13T21:17:22.185Z,24.24
2018-09-13T21:19:53.982Z,24.03
2018-09-13T21:22:24.861Z,23.92
2018-09-13T21:24:55.425Z,23.65
2018-09-13T21:27:25.995Z,23.51
2018-09-13T21:29:57.143Z,23.55
2018-09-13T21:32:28.324Z,23.57
2018-09-13T21:34:58.824Z,23.44
2018-09-13T21:37:29.453Z,23.28
2018-09-13T21:39:59.693Z,23.16
2018-09-13T21:42:29.952Z,23.06
2018-09-13T21:45:00.948Z,23.00
2018-09-13T21:47:32.478Z,23.04
2018-09-13T21:50:03.255Z,22.89
2018-09-13T21:52:38.715Z,22.83
2018-09-13T21:55:12.522Z,22.81
2018-09-13T21:57:43.126Z,22.82
2018-09-13T22:00:13.694Z,22.82
2018-09-13T22:02:44.223Z,22.87
2018-09-13T22:05:15.412Z,22.93
2018-09-13T22:07:45.951Z,22.83
2018-09-13T22:10:16.168Z,22.80
2018-09-13T22:12:46.732Z,22.65
2018-09-13T22:15:17.504Z,22.51
2018-09-13T22:17:48.176Z,22.46
2018-09-13T22:20:19.245Z,22.35
2018-09-13T22:22:50.285Z,22.38
2018-09-13T22:25:21.236Z,22.38
2018-09-13T22:27:52.108Z,22.34
2018-09-13T22:30:22.628Z,22.26
2018-09-13T22:32:53.164Z,22.19
2018-09-13T22:35:23.969Z,22.19
2018-09-13T22:37:54.877Z,22.17
2018-09-13T22:40:26.480Z,22.07
2018-09-13T22:42:57.012Z,22.01
2018-09-13T22:45:27.542Z,22.00
2018-09-13T22:47:58.651Z,21.86
2018-09-13T22:50:29.405Z,21.81
2018-09-13T22:53:00.163Z,21.73
2018-09-13T22:55:30.794Z,21.70
2018-09-13T22:58:01.293Z,21.72
2018-09-13T23:00:31.798Z,21.66
2018-09-13T23:03:02.504Z,21.65
2018-09-13T23:05:33.064Z,21.66
2018-09-13T23:08:03.622Z,21.66
2018-09-13T23:10:34.222Z,21.68
2018-09-13T23:13:04.431Z,21.71
2018-09-13T23:15:34.927Z,21.70
2018-09-13T23:18:05.956Z,21.69
2018-09-13T23:20:36.220Z,21.68
2018-09-13T23:23:06.691Z,21.73
2018-09-13T23:25:37.842Z,21.70
2018-09-13T23:28:08.414Z,21.68
2018-09-13T23:30:38.957Z,21.71
2018-09-13T23:33:10.099Z,21.76
2018-09-13T23:35:42.248Z,21.71
2018-09-13T23:38:12.756Z,21.63
2018-09-13T23:40:43.399Z,21.53
2018-09-13T23:43:13.928Z,21.52
2018-09-13T23:45:44.368Z,21.48
2018-09-13T23:48:15.074Z,21.48
2018-09-13T23:50:45.632Z,21.45
2018-09-13T23:53:15.949Z,21.42
2018-09-13T23:55:46.224Z,21.39
2018-09-13T23:58:16.730Z,21.27
